sensor_id;sensor_type;location;lat;lon;timestamp;pressure;altitude;pressure_sealevel;temperature
49593;BMP280;35499;51.482;4.264;2023-05-29T00:02:10;102317.94;;;13.16
49593;BMP280;35499;51.482;4.264;2023-05-29T00:04:35;102316.25;;;13.12
49593;BMP280;35499;51.482;4.264;2023-05-29T00:07:01;102308.50;;;13.07
49593;BMP280;35499;51.482;4.264;2023-05-29T00:16:44;102307.63;;;12.95
49593;BMP280;35499;51.482;4.264;2023-05-29T00:19:09;102305.97;;;12.90
49593;BMP280;35499;51.482;4.264;2023-05-29T00:21:35;102314.53;;;12.89
49593;BMP280;35499;51.482;4.264;2023-05-29T00:24:00;102311.09;;;12.87
49593;BMP280;35499;51.482;4.264;2023-05-29T00:26:25;102318.84;;;12.84
49593;BMP280;35499;51.482;4.264;2023-05-29T00:28:51;102321.41;;;12.81
49593;BMP280;35499;51.482;4.264;2023-05-29T00:31:16;102319.69;;;12.80
49593;BMP280;35499;51.482;4.264;2023-05-29T00:33:41;102315.41;;;12.78
49593;BMP280;35499;51.482;4.264;2023-05-29T00:36:07;102322.25;;;12.76
49593;BMP280;35499;51.482;4.264;2023-05-29T00:38:32;102326.56;;;12.75
49593;BMP280;35499;51.482;4.264;2023-05-29T00:40:58;102334.31;;;12.72
49593;BMP280;35499;51.482;4.264;2023-05-29T00:43:24;102329.16;;;12.70
49593;BMP280;35499;51.482;4.264;2023-05-29T00:45:49;102335.16;;;12.67
49593;BMP280;35499;51.482;4.264;2023-05-29T00:48:15;102331.69;;;12.65
49593;BMP280;35499;51.482;4.264;2023-05-29T00:50:40;102344.59;;;12.65
49593;BMP280;35499;51.482;4.264;2023-05-29T00:53:05;102342.88;;;12.63
49593;BMP280;35499;51.482;4.264;2023-05-29T00:55:32;102342.88;;;12.60
49593;BMP280;35499;51.482;4.264;2023-05-29T00:57:59;102354.88;;;12.58
49593;BMP280;35499;51.482;4.264;2023-05-29T01:00:24;102346.28;;;12.54
49593;BMP280;35499;51.482;4.264;2023-05-29T01:02:49;102346.25;;;12.52
49593;BMP280;35499;51.482;4.264;2023-05-29T01:05:14;102340.25;;;12.48
49593;BMP280;35499;51.482;4.264;2023-05-29T01:07:40;102350.56;;;12.45
49593;BMP280;35499;51.482;4.264;2023-05-29T01:10:06;102349.69;;;12.43
49593;BMP280;35499;51.482;4.264;2023-05-29T01:25:29;102359.09;;;12.27
49593;BMP280;35499;51.482;4.264;2023-05-29T01:27:59;102363.41;;;12.25
49593;BMP280;35499;51.482;4.264;2023-05-29T01:30:26;102361.63;;;12.21
49593;BMP280;35499;51.482;4.264;2023-05-29T01:32:53;102363.34;;;12.17
49593;BMP280;35499;51.482;4.264;2023-05-29T01:35:18;102354.75;;;12.13
49593;BMP280;35499;51.482;4.264;2023-05-29T01:37:43;102361.63;;;12.09
49593;BMP280;35499;51.482;4.264;2023-05-29T01:40:08;102356.44;;;12.06
49593;BMP280;35499;51.482;4.264;2023-05-29T01:42:34;102367.63;;;12.05
49593;BMP280;35499;51.482;4.264;2023-05-29T01:44:59;102364.16;;;12.03
49593;BMP280;35499;51.482;4.264;2023-05-29T01:47:25;102366.72;;;11.99
49593;BMP280;35499;51.482;4.264;2023-05-29T01:49:51;102373.56;;;11.96
49593;BMP280;35499;51.482;4.264;2023-05-29T01:52:16;102369.28;;;11.93
49593;BMP280;35499;51.482;4.264;2023-05-29T01:54:42;102370.97;;;11.91
49593;BMP280;35499;51.482;4.264;2023-05-29T01:57:08;102375.25;;;11.89
49593;BMP280;35499;51.482;4.264;2023-05-29T01:59:33;102370.97;;;11.85
49593;BMP280;35499;51.482;4.264;2023-05-29T02:02:04;102376.06;;;11.81
49593;BMP280;35499;51.482;4.264;2023-05-29T02:04:30;102381.19;;;11.78
49593;BMP280;35499;51.482;4.264;2023-05-29T02:06:55;102376.06;;;11.75
49593;BMP280;35499;51.482;4.264;2023-05-29T02:09:20;102381.16;;;11.71
49593;BMP280;35499;51.482;4.264;2023-05-29T02:11:47;102379.44;;;11.68
49593;BMP280;35499;51.482;4.264;2023-05-29T02:14:13;102387.16;;;11.65
49593;BMP280;35499;51.482;4.264;2023-05-29T02:16:38;102380.25;;;11.63
49593;BMP280;35499;51.482;4.264;2023-05-29T02:19:05;102379.38;;;11.61
49593;BMP280;35499;51.482;4.264;2023-05-29T02:21:31;102383.66;;;11.58
49593;BMP280;35499;51.482;4.264;2023-05-29T02:23:56;102389.66;;;11.57
49593;BMP280;35499;51.482;4.264;2023-05-29T02:26:21;102391.34;;;11.52
49593;BMP280;35499;51.482;4.264;2023-05-29T02:28:47;102381.03;;;11.49
49593;BMP280;35499;51.482;4.264;2023-05-29T02:31:12;102387.88;;;11.48
49593;BMP280;35499;51.482;4.264;2023-05-29T02:33:38;102389.59;;;11.45
49593;BMP280;35499;51.482;4.264;2023-05-29T02:36:03;102389.53;;;11.42
49593;BMP280;35499;51.482;4.264;2023-05-29T02:38:28;102385.25;;;11.40
49593;BMP280;35499;51.482;4.264;2023-05-29T02:40:53;102389.50;;;11.36
49593;BMP280;35499;51.482;4.264;2023-05-29T02:43:21;102404.09;;;11.34
49593;BMP280;35499;51.482;4.264;2023-05-29T02:45:46;102398.91;;;11.33
49593;BMP280;35499;51.482;4.264;2023-05-29T02:48:11;102393.75;;;11.28
49593;BMP280;35499;51.482;4.264;2023-05-29T02:50:36;102399.72;;;11.27
49593;BMP280;35499;51.482;4.264;2023-05-29T02:53:02;102393.69;;;11.26
49593;BMP280;35499;51.482;4.264;2023-05-29T02:55:27;102387.69;;;11.24
49593;BMP280;35499;51.482;4.264;2023-05-29T02:57:53;102399.69;;;11.25
49593;BMP280;35499;51.482;4.264;2023-05-29T03:00:20;102385.09;;;11.21
49593;BMP280;35499;51.482;4.264;2023-05-29T03:02:45;102387.63;;;11.18
49593;BMP280;35499;51.482;4.264;2023-05-29T03:05:10;102385.88;;;11.14
49593;BMP280;35499;51.482;4.264;2023-05-29T03:07:36;102379.84;;;11.12
49593;BMP280;35499;51.482;4.264;2023-05-29T03:12:26;102385.81;;;11.07
49593;BMP280;35499;51.482;4.264;2023-05-29T03:14:52;102393.50;;;11.04
49593;BMP280;35499;51.482;4.264;2023-05-29T03:17:18;102402.06;;;11.03
49593;BMP280;35499;51.482;4.264;2023-05-29T03:19:44;102393.50;;;11.02
49593;BMP280;35499;51.482;4.264;2023-05-29T03:22:09;102400.34;;;11.00
49593;BMP280;35499;51.482;4.264;2023-05-29T03:24:34;102396.88;;;10.98
49593;BMP280;35499;51.482;4.264;2023-05-29T03:27:00;102398.56;;;10.96
49593;BMP280;35499;51.482;4.264;2023-05-29T03:29:25;102410.56;;;10.94
49593;BMP280;35499;51.482;4.264;2023-05-29T03:31:50;102406.28;;;10.93
49593;BMP280;35499;51.482;4.264;2023-05-29T03:34:15;102414.81;;;10.92
49593;BMP280;35499;51.482;4.264;2023-05-29T03:36:40;102419.09;;;10.91
49593;BMP280;35499;51.482;4.264;2023-05-29T03:39:06;102418.22;;;10.89
49593;BMP280;35499;51.482;4.264;2023-05-29T03:41:31;102416.50;;;10.88
49593;BMP280;35499;51.482;4.264;2023-05-29T03:43:56;102425.03;;;10.87
49593;BMP280;35499;51.482;4.264;2023-05-29T03:46:22;102423.34;;;10.86
49593;BMP280;35499;51.482;4.264;2023-05-29T03:48:47;102433.63;;;10.86
49593;BMP280;35499;51.482;4.264;2023-05-29T03:51:12;102425.88;;;10.83
49593;BMP280;35499;51.482;4.264;2023-05-29T03:53:37;102433.56;;;10.83
49593;BMP280;35499;51.482;4.264;2023-05-29T03:56:02;102419.88;;;10.81
49593;BMP280;35499;51.482;4.264;2023-05-29T03:58:28;102431.00;;;10.80
49593;BMP280;35499;51.482;4.264;2023-05-29T04:00:53;102430.97;;;10.81
49593;BMP280;35499;51.482;4.264;2023-05-29T04:03:18;102430.13;;;10.82
49593;BMP280;35499;51.482;4.264;2023-05-29T04:05:43;102439.56;;;10.82
49593;BMP280;35499;51.482;4.264;2023-05-29T04:08:12;102430.16;;;10.81
49593;BMP280;35499;51.482;4.264;2023-05-29T04:10:38;102445.59;;;10.84
49593;BMP280;35499;51.482;4.264;2023-05-29T04:13:04;102449.88;;;10.85
49593;BMP280;35499;51.482;4.264;2023-05-29T04:15:29;102449.03;;;10.84
49593;BMP280;35499;51.482;4.264;2023-05-29T04:17:55;102438.75;;;10.86
49593;BMP280;35499;51.482;4.264;2023-05-29T04:20:20;102432.75;;;10.87
49593;BMP280;35499;51.482;4.264;2023-05-29T04:22:45;102443.06;;;10.91
49593;BMP280;35499;51.482;4.264;2023-05-29T04:25:11;102439.66;;;10.92
49593;BMP280;35499;51.482;4.264;2023-05-29T04:27:36;102440.56;;;10.95
49593;BMP280;35499;51.482;4.264;2023-05-29T04:30:02;102443.16;;;10.95
49593;BMP280;35499;51.482;4.264;2023-05-29T04:32:27;102449.13;;;10.97
49593;BMP280;35499;51.482;4.264;2023-05-29T04:34:52;102447.47;;;10.99
49593;BMP280;35499;51.482;4.264;2023-05-29T04:37:17;102444.91;;;11.02
49593;BMP280;35499;51.482;4.264;2023-05-29T04:39:43;102440.66;;;11.07
49593;BMP280;35499;51.482;4.264;2023-05-29T04:42:08;102446.72;;;11.13
49593;BMP280;35499;51.482;4.264;2023-05-29T04:44:33;102451.03;;;11.16
49593;BMP280;35499;51.482;4.264;2023-05-29T04:46:59;102451.97;;;11.21
49593;BMP280;35499;51.482;4.264;2023-05-29T04:49:27;102445.09;;;11.23
49593;BMP280;35499;51.482;4.264;2023-05-29T04:51:53;102451.22;;;11.30
49593;BMP280;35499;51.482;4.264;2023-05-29T04:54:18;102453.84;;;11.39
49593;BMP280;35499;51.482;4.264;2023-05-29T04:56:44;102450.47;;;11.47
49593;BMP280;35499;51.482;4.264;2023-05-29T04:59:10;102463.44;;;11.58
49593;BMP280;35499;51.482;4.264;2023-05-29T05:01:35;102449.75;;;11.66
49593;BMP280;35499;51.482;4.264;2023-05-29T05:04:00;102454.91;;;11.67
49593;BMP280;35499;51.482;4.264;2023-05-29T05:06:25;102460.09;;;11.72
49593;BMP280;35499;51.482;4.264;2023-05-29T05:08:51;102472.16;;;11.79
49593;BMP280;35499;51.482;4.264;2023-05-29T05:11:17;102459.34;;;11.84
49593;BMP280;35499;51.482;4.264;2023-05-29T05:13:43;102475.66;;;11.85
49593;BMP280;35499;51.482;4.264;2023-05-29T05:16:08;102469.63;;;11.87
49593;BMP280;35499;51.482;4.264;2023-05-29T05:18:33;102475.69;;;11.97
49593;BMP280;35499;51.482;4.264;2023-05-29T05:20:58;102469.72;;;12.02
49593;BMP280;35499;51.482;4.264;2023-05-29T05:23:23;102480.94;;;12.11
49593;BMP280;35499;51.482;4.264;2023-05-29T05:25:49;102485.34;;;12.25
49593;BMP280;35499;51.482;4.264;2023-05-29T05:28:14;102475.91;;;12.32
49593;BMP280;35499;51.482;4.264;2023-05-29T05:30:39;102471.66;;;12.42
49593;BMP280;35499;51.482;4.264;2023-05-29T05:33:05;102488.88;;;12.52
49593;BMP280;35499;51.482;4.264;2023-05-29T05:35:30;102486.31;;;12.58
49593;BMP280;35499;51.482;4.264;2023-05-29T05:37:55;102477.81;;;12.65
49593;BMP280;35499;51.482;4.264;2023-05-29T05:40:23;102474.41;;;12.77
49593;BMP280;35499;51.482;4.264;2023-05-29T05:42:48;102474.44;;;12.92
49593;BMP280;35499;51.482;4.264;2023-05-29T05:45:13;102476.19;;;13.07
49593;BMP280;35499;51.482;4.264;2023-05-29T05:47:39;102469.31;;;13.21
49593;BMP280;35499;51.482;4.264;2023-05-29T05:50:04;102477.06;;;13.28
49593;BMP280;35499;51.482;4.264;2023-05-29T05:52:29;102471.06;;;13.34
49593;BMP280;35499;51.482;4.264;2023-05-29T05:54:56;102467.63;;;13.49
49593;BMP280;35499;51.482;4.264;2023-05-29T05:57:21;102466.72;;;13.71
49593;BMP280;35499;51.482;4.264;2023-05-29T05:59:47;102475.34;;;13.86
49593;BMP280;35499;51.482;4.264;2023-05-29T06:02:12;102473.59;;;13.96
49593;BMP280;35499;51.482;4.264;2023-05-29T06:04:37;102462.38;;;14.11
49593;BMP280;35499;51.482;4.264;2023-05-29T06:07:03;102469.22;;;14.20
49593;BMP280;35499;51.482;4.264;2023-05-29T06:09:28;102472.63;;;14.37
49593;BMP280;35499;51.482;4.264;2023-05-29T06:11:54;102473.44;;;14.45
49593;BMP280;35499;51.482;4.264;2023-05-29T06:14:20;102470.84;;;14.52
49593;BMP280;35499;51.482;4.264;2023-05-29T06:16:45;102468.19;;;14.61
49593;BMP280;35499;51.482;4.264;2023-05-29T06:19:10;102480.22;;;14.72
49593;BMP280;35499;51.482;4.264;2023-05-29T06:21:35;102482.69;;;14.98
49593;BMP280;35499;51.482;4.264;2023-05-29T06:24:01;102478.22;;;15.21
49593;BMP280;35499;51.482;4.264;2023-05-29T06:26:26;102482.47;;;15.33
49593;BMP280;35499;51.482;4.264;2023-05-29T06:28:51;102482.53;;;15.22
49593;BMP280;35499;51.482;4.264;2023-05-29T06:31:17;102489.44;;;15.24
49593;BMP280;35499;51.482;4.264;2023-05-29T06:33:42;102484.06;;;15.49
49593;BMP280;35499;51.482;4.264;2023-05-29T06:36:07;102483.81;;;15.75
49593;BMP280;35499;51.482;4.264;2023-05-29T06:38:33;102479.13;;;16.13
49593;BMP280;35499;51.482;4.264;2023-05-29T07:29:30;102465.28;;;19.82
49593;BMP280;35499;51.482;4.264;2023-05-29T07:31:55;102480.66;;;19.92
49593;BMP280;35499;51.482;4.264;2023-05-29T07:34:20;102487.09;;;19.78
49593;BMP280;35499;51.482;4.264;2023-05-29T07:39:27;102490.09;;;19.97
49593;BMP280;35499;51.482;4.264;2023-05-29T07:41:52;102482.59;;;20.17
49593;BMP280;35499;51.482;4.264;2023-05-29T07:44:17;102490.81;;;20.33
49593;BMP280;35499;51.482;4.264;2023-05-29T07:46:43;102480.56;;;20.57
49593;BMP280;35499;51.482;4.264;2023-05-29T07:49:08;102494.94;;;20.71
49593;BMP280;35499;51.482;4.264;2023-05-29T07:51:33;102478.56;;;20.93
49593;BMP280;35499;51.482;4.264;2023-05-29T08:15:29;102483.06;;;21.43
49593;BMP280;35499;51.482;4.264;2023-05-29T08:17:56;102485.53;;;21.98
49593;BMP280;35499;51.482;4.264;2023-05-29T08:20:21;102482.69;;;21.80
49593;BMP280;35499;51.482;4.264;2023-05-29T08:22:46;102482.88;;;21.74
49593;BMP280;35499;51.482;4.264;2023-05-29T08:25:12;102489.69;;;21.78
49593;BMP280;35499;51.482;4.264;2023-05-29T08:27:37;102486.34;;;22.00
49593;BMP280;35499;51.482;4.264;2023-05-29T08:30:03;102478.97;;;21.87
49593;BMP280;35499;51.482;4.264;2023-05-29T08:32:28;102478.06;;;21.88
49593;BMP280;35499;51.482;4.264;2023-05-29T08:34:53;102477.38;;;22.07
49593;BMP280;35499;51.482;4.264;2023-05-29T08:37:19;102490.63;;;22.26
49593;BMP280;35499;51.482;4.264;2023-05-29T08:39:44;102469.28;;;22.60
49593;BMP280;35499;51.482;4.264;2023-05-29T08:44:57;102480.84;;;22.77
49593;BMP280;35499;51.482;4.264;2023-05-29T08:47:32;102484.13;;;22.82
49593;BMP280;35499;51.482;4.264;2023-05-29T08:50:35;102484.47;;;22.74
49593;BMP280;35499;51.482;4.264;2023-05-29T08:53:00;102494.25;;;22.46
49593;BMP280;35499;51.482;4.264;2023-05-29T09:04:36;102490.59;;;22.74
49593;BMP280;35499;51.482;4.264;2023-05-29T09:07:01;102495.97;;;22.92
49593;BMP280;35499;51.482;4.264;2023-05-29T09:09:27;102503.50;;;22.78
49593;BMP280;35499;51.482;4.264;2023-05-29T09:11:53;102493.47;;;22.67
49593;BMP280;35499;51.482;4.264;2023-05-29T09:17:02;102493.97;;;23.42
49593;BMP280;35499;51.482;4.264;2023-05-29T09:19:28;102487.59;;;23.68
49593;BMP280;35499;51.482;4.264;2023-05-29T09:21:59;102493.34;;;23.56
49593;BMP280;35499;51.482;4.264;2023-05-29T09:24:25;102500.03;;;23.21
49593;BMP280;35499;51.482;4.264;2023-05-29T09:26:52;102508.69;;;23.23
49593;BMP280;35499;51.482;4.264;2023-05-29T09:29:17;102490.88;;;23.53
49593;BMP280;35499;51.482;4.264;2023-05-29T09:31:45;102488.16;;;23.76
49593;BMP280;35499;51.482;4.264;2023-05-29T09:34:11;102486.03;;;23.64
49593;BMP280;35499;51.482;4.264;2023-05-29T09:36:37;102484.78;;;23.72
49593;BMP280;35499;51.482;4.264;2023-05-29T09:39:03;102480.44;;;23.92
49593;BMP280;35499;51.482;4.264;2023-05-29T09:41:28;102487.66;;;24.07
49593;BMP280;35499;51.482;4.264;2023-05-29T09:43:56;102489.28;;;23.90
49593;BMP280;35499;51.482;4.264;2023-05-29T09:46:21;102477.94;;;24.28
49593;BMP280;35499;51.482;4.264;2023-05-29T09:48:46;102477.84;;;24.49
49593;BMP280;35499;51.482;4.264;2023-05-29T09:51:19;102478.91;;;24.65
49593;BMP280;35499;51.482;4.264;2023-05-29T09:53:44;102476.34;;;24.63
49593;BMP280;35499;51.482;4.264;2023-05-29T09:56:11;102486.44;;;24.72
49593;BMP280;35499;51.482;4.264;2023-05-29T09:58:38;102477.34;;;24.97
49593;BMP280;35499;51.482;4.264;2023-05-29T10:01:10;102470.66;;;25.08
49593;BMP280;35499;51.482;4.264;2023-05-29T10:03:36;102475.00;;;25.09
49593;BMP280;35499;51.482;4.264;2023-05-29T10:06:01;102482.03;;;25.27
49593;BMP280;35499;51.482;4.264;2023-05-29T10:08:27;102486.84;;;25.17
49593;BMP280;35499;51.482;4.264;2023-05-29T10:10:58;102481.28;;;25.41
49593;BMP280;35499;51.482;4.264;2023-05-29T10:13:24;102470.47;;;25.47
49593;BMP280;35499;51.482;4.264;2023-05-29T10:15:52;102472.66;;;25.21
49593;BMP280;35499;51.482;4.264;2023-05-29T10:21:11;102466.47;;;25.04
49593;BMP280;35499;51.482;4.264;2023-05-29T10:23:37;102479.13;;;24.78
49593;BMP280;35499;51.482;4.264;2023-05-29T10:26:05;102478.75;;;24.86
49593;BMP280;35499;51.482;4.264;2023-05-29T10:28:32;102473.50;;;25.04
49593;BMP280;35499;51.482;4.264;2023-05-29T10:31:22;102471.78;;;25.21
49593;BMP280;35499;51.482;4.264;2023-05-29T10:48:35;102454.09;;;25.59
49593;BMP280;35499;51.482;4.264;2023-05-29T10:50:45;102447.00;;;25.94
49593;BMP280;35499;51.482;4.264;2023-05-29T10:53:14;102451.03;;;25.84
49593;BMP280;35499;51.482;4.264;2023-05-29T10:55:40;102456.66;;;25.60
49593;BMP280;35499;51.482;4.264;2023-05-29T10:58:11;102447.06;;;25.41
49593;BMP280;35499;51.482;4.264;2023-05-29T11:00:41;102455.34;;;25.68
49593;BMP280;35499;51.482;4.264;2023-05-29T11:03:11;102459.38;;;25.92
49593;BMP280;35499;51.482;4.264;2023-05-29T11:08:22;102467.16;;;25.77
49593;BMP280;35499;51.482;4.264;2023-05-29T11:13:31;102456.47;;;25.47
49593;BMP280;35499;51.482;4.264;2023-05-29T11:18:43;102457.06;;;25.17
49593;BMP280;35499;51.482;4.264;2023-05-29T11:21:22;102454.63;;;25.30
49593;BMP280;35499;51.482;4.264;2023-05-29T11:23:51;102451.81;;;25.51
49593;BMP280;35499;51.482;4.264;2023-05-29T11:26:17;102450.97;;;25.51
49593;BMP280;35499;51.482;4.264;2023-05-29T11:28:44;102452.16;;;25.79
49593;BMP280;35499;51.482;4.264;2023-05-29T11:31:10;102443.56;;;26.08
49593;BMP280;35499;51.482;4.264;2023-05-29T11:33:39;102437.94;;;26.31
49593;BMP280;35499;51.482;4.264;2023-05-29T11:36:05;102447.41;;;26.35
49593;BMP280;35499;51.482;4.264;2023-05-29T11:38:31;102426.75;;;26.42
49593;BMP280;35499;51.482;4.264;2023-05-29T11:40:56;102441.94;;;26.54
49593;BMP280;35499;51.482;4.264;2023-05-29T11:43:23;102435.38;;;26.46
49593;BMP280;35499;51.482;4.264;2023-05-29T11:45:49;102443.81;;;26.52
49593;BMP280;35499;51.482;4.264;2023-05-29T11:48:14;102432.88;;;26.43
49593;BMP280;35499;51.482;4.264;2023-05-29T11:50:39;102432.28;;;26.38
49593;BMP280;35499;51.482;4.264;2023-05-29T11:53:05;102428.31;;;26.46
49593;BMP280;35499;51.482;4.264;2023-05-29T11:55:31;102426.28;;;26.51
49593;BMP280;35499;51.482;4.264;2023-05-29T11:57:57;102416.91;;;26.46
49593;BMP280;35499;51.482;4.264;2023-05-29T12:00:23;102434.97;;;26.37
49593;BMP280;35499;51.482;4.264;2023-05-29T12:02:49;102438.41;;;26.38
49593;BMP280;35499;51.482;4.264;2023-05-29T12:05:15;102432.44;;;26.67
49593;BMP280;35499;51.482;4.264;2023-05-29T12:07:52;102422.81;;;26.66
49593;BMP280;35499;51.482;4.264;2023-05-29T12:10:18;102429.66;;;26.85
49593;BMP280;35499;51.482;4.264;2023-05-29T12:12:58;102417.28;;;27.00
49593;BMP280;35499;51.482;4.264;2023-05-29T12:15:23;102426.91;;;27.01
49593;BMP280;35499;51.482;4.264;2023-05-29T12:17:49;102424.72;;;26.94
49593;BMP280;35499;51.482;4.264;2023-05-29T12:20:15;102426.50;;;26.78
49593;BMP280;35499;51.482;4.264;2023-05-29T12:22:42;102423.31;;;26.57
49593;BMP280;35499;51.482;4.264;2023-05-29T12:25:17;102428.88;;;26.68
49593;BMP280;35499;51.482;4.264;2023-05-29T12:27:45;102421.88;;;26.67
49593;BMP280;35499;51.482;4.264;2023-05-29T12:30:14;102408.44;;;26.71
49593;BMP280;35499;51.482;4.264;2023-05-29T12:32:40;102417.97;;;26.74
49593;BMP280;35499;51.482;4.264;2023-05-29T12:35:13;102421.03;;;26.81
49593;BMP280;35499;51.482;4.264;2023-05-29T12:37:44;102410.06;;;26.89
49593;BMP280;35499;51.482;4.264;2023-05-29T12:40:11;102414.75;;;26.84
49593;BMP280;35499;51.482;4.264;2023-05-29T12:42:39;102416.66;;;26.50
49593;BMP280;35499;51.482;4.264;2023-05-29T12:45:06;102430.44;;;26.23
49593;BMP280;35499;51.482;4.264;2023-05-29T12:47:32;102416.41;;;26.23
49593;BMP280;35499;51.482;4.264;2023-05-29T12:49:57;102409.88;;;26.15
49593;BMP280;35499;51.482;4.264;2023-05-29T12:52:23;102411.66;;;25.98
49593;BMP280;35499;51.482;4.264;2023-05-29T12:54:48;102418.41;;;25.70
49593;BMP280;35499;51.482;4.264;2023-05-29T12:57:14;102419.22;;;25.37
49593;BMP280;35499;51.482;4.264;2023-05-29T12:59:39;102418.38;;;25.37
49593;BMP280;35499;51.482;4.264;2023-05-29T13:02:05;102420.94;;;25.38
49593;BMP280;35499;51.482;4.264;2023-05-29T13:04:33;102428.88;;;25.02
49593;BMP280;35499;51.482;4.264;2023-05-29T13:06:58;102420.50;;;24.94
49593;BMP280;35499;51.482;4.264;2023-05-29T13:09:23;102427.25;;;24.82
49593;BMP280;35499;51.482;4.264;2023-05-29T13:11:49;102427.31;;;24.62
49593;BMP280;35499;51.482;4.264;2023-05-29T13:14:14;102428.59;;;24.72
49593;BMP280;35499;51.482;4.264;2023-05-29T13:16:39;102418.94;;;24.73
49593;BMP280;35499;51.482;4.264;2023-05-29T13:19:04;102417.00;;;24.76
49593;BMP280;35499;51.482;4.264;2023-05-29T13:21:30;102413.19;;;24.65
49593;BMP280;35499;51.482;4.264;2023-05-29T13:23:55;102416.44;;;24.14
49593;BMP280;35499;51.482;4.264;2023-05-29T13:26:21;102429.03;;;23.87
49593;BMP280;35499;51.482;4.264;2023-05-29T13:28:46;102441.53;;;23.61
49593;BMP280;35499;51.482;4.264;2023-05-29T13:31:12;102431.91;;;23.62
49593;BMP280;35499;51.482;4.264;2023-05-29T13:33:37;102431.31;;;23.55
49593;BMP280;35499;51.482;4.264;2023-05-29T13:36:02;102441.22;;;23.28
49593;BMP280;35499;51.482;4.264;2023-05-29T13:38:27;102436.03;;;23.06
49593;BMP280;35499;51.482;4.264;2023-05-29T13:40:53;102427.50;;;23.01
49593;BMP280;35499;51.482;4.264;2023-05-29T13:43:18;102429.31;;;22.99
49593;BMP280;35499;51.482;4.264;2023-05-29T13:45:43;102419.41;;;22.84
49593;BMP280;35499;51.482;4.264;2023-05-29T13:48:08;102419.03;;;22.72
49593;BMP280;35499;51.482;4.264;2023-05-29T13:50:33;102424.09;;;22.77
49593;BMP280;35499;51.482;4.264;2023-05-29T13:52:59;102419.03;;;22.72
49593;BMP280;35499;51.482;4.264;2023-05-29T13:55:24;102429.47;;;22.74
49593;BMP280;35499;51.482;4.264;2023-05-29T13:57:50;102420.91;;;22.69
49593;BMP280;35499;51.482;4.264;2023-05-29T14:00:15;102427.06;;;22.68
49593;BMP280;35499;51.482;4.264;2023-05-29T14:02:40;102409.84;;;22.83
49593;BMP280;35499;51.482;4.264;2023-05-29T14:05:06;102423.38;;;22.94
49593;BMP280;35499;51.482;4.264;2023-05-29T14:07:32;102430.66;;;23.09
49593;BMP280;35499;51.482;4.264;2023-05-29T14:09:57;102421.00;;;23.09
49593;BMP280;35499;51.482;4.264;2023-05-29T14:12:22;102422.66;;;23.12
49593;BMP280;35499;51.482;4.264;2023-05-29T14:14:48;102427.34;;;23.04
49593;BMP280;35499;51.482;4.264;2023-05-29T14:17:13;102428.41;;;22.77
49593;BMP280;35499;51.482;4.264;2023-05-29T14:19:38;102431.34;;;22.70
49593;BMP280;35499;51.482;4.264;2023-05-29T14:22:04;102439.25;;;22.46
49593;BMP280;35499;51.482;4.264;2023-05-29T14:24:29;102437.50;;;22.23
49593;BMP280;35499;51.482;4.264;2023-05-29T14:26:54;102422.88;;;22.18
49593;BMP280;35499;51.482;4.264;2023-05-29T14:29:19;102443.94;;;21.91
49593;BMP280;35499;51.482;4.264;2023-05-29T14:31:45;102432.16;;;21.78
49593;BMP280;35499;51.482;4.264;2023-05-29T14:34:11;102436.69;;;21.73
49593;BMP280;35499;51.482;4.264;2023-05-29T14:36:36;102435.13;;;21.68
49593;BMP280;35499;51.482;4.264;2023-05-29T14:39:02;102438.69;;;21.42
49593;BMP280;35499;51.482;4.264;2023-05-29T14:41:27;102442.84;;;21.22
49593;BMP280;35499;51.482;4.264;2023-05-29T14:43:52;102439.72;;;21.11
49593;BMP280;35499;51.482;4.264;2023-05-29T14:46:18;102450.22;;;21.10
49593;BMP280;35499;51.482;4.264;2023-05-29T14:48:43;102445.47;;;20.94
49593;BMP280;35499;51.482;4.264;2023-05-29T14:51:09;102443.69;;;20.94
49593;BMP280;35499;51.482;4.264;2023-05-29T14:53:35;102445.16;;;21.02
49593;BMP280;35499;51.482;4.264;2023-05-29T14:56:00;102438.00;;;21.10
49593;BMP280;35499;51.482;4.264;2023-05-29T14:58:25;102447.59;;;21.10
49593;BMP280;35499;51.482;4.264;2023-05-29T15:00:50;102442.63;;;21.01
49593;BMP280;35499;51.482;4.264;2023-05-29T15:03:16;102452.41;;;20.95
49593;BMP280;35499;51.482;4.264;2023-05-29T15:05:41;102446.09;;;21.01
49593;BMP280;35499;51.482;4.264;2023-05-29T15:08:06;102442.78;;;20.97
49593;BMP280;35499;51.482;4.264;2023-05-29T15:10:31;102435.13;;;20.91
49593;BMP280;35499;51.482;4.264;2023-05-29T15:12:57;102456.72;;;20.67
49593;BMP280;35499;51.482;4.264;2023-05-29T15:15:23;102452.47;;;20.65
49593;BMP280;35499;51.482;4.264;2023-05-29T15:17:49;102439.91;;;20.49
49593;BMP280;35499;51.482;4.264;2023-05-29T15:20:27;102440.13;;;20.42
49593;BMP280;35499;51.482;4.264;2023-05-29T15:22:52;102432.78;;;20.24
49593;BMP280;35499;51.482;4.264;2023-05-29T15:25:18;102440.59;;;20.24
49593;BMP280;35499;51.482;4.264;2023-05-29T15:27:44;102444.06;;;20.25
49593;BMP280;35499;51.482;4.264;2023-05-29T15:32:34;102431.69;;;20.32
49593;BMP280;35499;51.482;4.264;2023-05-29T15:35:00;102439.44;;;20.35
49593;BMP280;35499;51.482;4.264;2023-05-29T15:37:25;102425.59;;;20.32
49593;BMP280;35499;51.482;4.264;2023-05-29T15:39:50;102431.84;;;20.26
49593;BMP280;35499;51.482;4.264;2023-05-29T15:42:15;102438.75;;;20.27
49593;BMP280;35499;51.482;4.264;2023-05-29T15:44:40;102441.31;;;20.29
49593;BMP280;35499;51.482;4.264;2023-05-29T15:47:06;102430.09;;;20.27
49593;BMP280;35499;51.482;4.264;2023-05-29T15:49:31;102431.00;;;20.26
49593;BMP280;35499;51.482;4.264;2023-05-29T15:51:58;102427.66;;;20.21
49593;BMP280;35499;51.482;4.264;2023-05-29T15:54:23;102428.16;;;20.04
49593;BMP280;35499;51.482;4.264;2023-05-29T15:56:48;102434.72;;;19.87
49593;BMP280;35499;51.482;4.264;2023-05-29T15:59:13;102424.50;;;19.79
49593;BMP280;35499;51.482;4.264;2023-05-29T16:01:39;102438.69;;;19.68
49593;BMP280;35499;51.482;4.264;2023-05-29T16:04:04;102435.59;;;19.54
49593;BMP280;35499;51.482;4.264;2023-05-29T16:06:31;102444.50;;;19.45
49593;BMP280;35499;51.482;4.264;2023-05-29T16:08:57;102446.44;;;19.37